sensor_id;sensor_type;location;lat;lon;timestamp;P1;durP1;ratioP1;P2;durP2;ratioP2
74689;SDS011;63221;51.860;-2.188;2023-06-14T00:00:32;4.77;;;3.93;;
74689;SDS011;63221;51.860;-2.188;2023-06-14T00:02:59;5.53;;;3.80;;
74689;SDS011;63221;51.860;-2.188;2023-06-14T00:05:25;5.95;;;4.38;;
74689;SDS011;63221;51.860;-2.188;2023-06-14T00:07:51;5.27;;;3.97;;
74689;SDS011;63221;51.860;-2.188;2023-06-14T00:10:18;8.82;;;5.00;;
74689;SDS011;63221;51.860;-2.188;2023-06-14T00:12:44;5.80;;;4.47;;
74689;SDS011;63221;51.860;-2.188;2023-06-14T00:15:09;6.40;;;4.40;;
74689;SDS011;63221;51.860;-2.188;2023-06-14T00:17:35;8.27;;;4.70;;
74689;SDS011;63221;51.860;-2.188;2023-06-14T00:20:01;6.40;;;4.43;;
74689;SDS011;63221;51.860;-2.188;2023-06-14T00:22:30;7.43;;;4.55;;
74689;SDS011;63221;51.860;-2.188;2023-06-14T00:24:56;8.18;;;5.00;;
74689;SDS011;63221;51.860;-2.188;2023-06-14T00:27:22;7.33;;;4.80;;
74689;SDS011;63221;51.860;-2.188;2023-06-14T00:29:47;8.90;;;5.57;;
74689;SDS011;63221;51.860;-2.188;2023-06-14T00:32:13;8.25;;;5.60;;
74689;SDS011;63221;51.860;-2.188;2023-06-14T00:34:38;8.53;;;4.77;;
74689;SDS011;63221;51.860;-2.188;2023-06-14T00:37:03;8.47;;;4.47;;
74689;SDS011;63221;51.860;-2.188;2023-06-14T00:39:29;8.80;;;4.17;;
74689;SDS011;63221;51.860;-2.188;2023-06-14T00:41:54;7.10;;;4.18;;
74689;SDS011;63221;51.860;-2.188;2023-06-14T00:44:20;9.07;;;4.17;;
74689;SDS011;63221;51.860;-2.188;2023-06-14T00:46:46;7.25;;;4.53;;
74689;SDS011;63221;51.860;-2.188;2023-06-14T00:49:13;6.17;;;4.07;;
74689;SDS011;63221;51.860;-2.188;2023-06-14T00:51:40;8.02;;;4.35;;
74689;SDS011;63221;51.860;-2.188;2023-06-14T00:54:06;6.13;;;4.03;;
74689;SDS011;63221;51.860;-2.188;2023-06-14T00:56:32;7.50;;;5.30;;
74689;SDS011;63221;51.860;-2.188;2023-06-14T00:58:57;7.50;;;4.70;;
74689;SDS011;63221;51.860;-2.188;2023-06-14T01:01:23;7.77;;;4.30;;
74689;SDS011;63221;51.860;-2.188;2023-06-14T01:03:49;6.57;;;4.93;;
74689;SDS011;63221;51.860;-2.188;2023-06-14T01:09:41;8.63;;;4.53;;
74689;SDS011;63221;51.860;-2.188;2023-06-14T01:12:31;10.13;;;4.87;;
74689;SDS011;63221;51.860;-2.188;2023-06-14T01:14:58;7.25;;;4.55;;
74689;SDS011;63221;51.860;-2.188;2023-06-14T01:17:24;7.32;;;4.60;;
74689;SDS011;63221;51.860;-2.188;2023-06-14T01:19:52;10.60;;;4.65;;
74689;SDS011;63221;51.860;-2.188;2023-06-14T01:22:23;7.90;;;5.28;;
74689;SDS011;63221;51.860;-2.188;2023-06-14T01:24:51;7.90;;;4.83;;
74689;SDS011;63221;51.860;-2.188;2023-06-14T01:27:20;8.07;;;3.97;;
74689;SDS011;63221;51.860;-2.188;2023-06-14T01:29:50;8.07;;;4.60;;
74689;SDS011;63221;51.860;-2.188;2023-06-14T01:32:17;5.90;;;3.85;;
74689;SDS011;63221;51.860;-2.188;2023-06-14T01:34:43;10.00;;;5.15;;
74689;SDS011;63221;51.860;-2.188;2023-06-14T01:37:09;6.10;;;4.40;;
74689;SDS011;63221;51.860;-2.188;2023-06-14T01:39:35;6.28;;;4.18;;
74689;SDS011;63221;51.860;-2.188;2023-06-14T01:42:01;6.30;;;3.73;;
74689;SDS011;63221;51.860;-2.188;2023-06-14T01:44:26;6.20;;;3.53;;
74689;SDS011;63221;51.860;-2.188;2023-06-14T01:46:52;7.45;;;4.00;;
74689;SDS011;63221;51.860;-2.188;2023-06-14T01:49:18;5.30;;;3.95;;
74689;SDS011;63221;51.860;-2.188;2023-06-14T01:51:45;5.03;;;3.58;;
74689;SDS011;63221;51.860;-2.188;2023-06-14T01:54:10;6.73;;;3.70;;
74689;SDS011;63221;51.860;-2.188;2023-06-14T01:56:36;6.10;;;3.33;;
74689;SDS011;63221;51.860;-2.188;2023-06-14T01:59:01;5.60;;;3.43;;
74689;SDS011;63221;51.860;-2.188;2023-06-14T02:01:27;10.95;;;3.15;;
74689;SDS011;63221;51.860;-2.188;2023-06-14T02:03:53;7.20;;;3.13;;
74689;SDS011;63221;51.860;-2.188;2023-06-14T02:06:18;6.93;;;3.08;;
74689;SDS011;63221;51.860;-2.188;2023-06-14T02:08:44;4.47;;;2.97;;
74689;SDS011;63221;51.860;-2.188;2023-06-14T02:11:09;7.90;;;2.83;;
74689;SDS011;63221;51.860;-2.188;2023-06-14T02:13:35;7.27;;;3.60;;
74689;SDS011;63221;51.860;-2.188;2023-06-14T02:16:00;5.30;;;2.73;;
74689;SDS011;63221;51.860;-2.188;2023-06-14T02:18:26;5.43;;;2.60;;
74689;SDS011;63221;51.860;-2.188;2023-06-14T02:20:52;4.13;;;2.30;;
74689;SDS011;63221;51.860;-2.188;2023-06-14T02:23:17;4.82;;;2.60;;
74689;SDS011;63221;51.860;-2.188;2023-06-14T02:25:43;4.20;;;2.47;;
74689;SDS011;63221;51.860;-2.188;2023-06-14T02:28:10;3.42;;;1.90;;
74689;SDS011;63221;51.860;-2.188;2023-06-14T02:30:35;5.27;;;1.80;;
74689;SDS011;63221;51.860;-2.188;2023-06-14T02:33:00;5.27;;;2.20;;
74689;SDS011;63221;51.860;-2.188;2023-06-14T02:35:26;4.23;;;2.73;;
74689;SDS011;63221;51.860;-2.188;2023-06-14T02:37:52;6.10;;;2.17;;
74689;SDS011;63221;51.860;-2.188;2023-06-14T02:40:19;4.57;;;2.10;;
74689;SDS011;63221;51.860;-2.188;2023-06-14T02:42:45;3.67;;;1.60;;
74689;SDS011;63221;51.860;-2.188;2023-06-14T02:45:10;4.67;;;2.07;;
74689;SDS011;63221;51.860;-2.188;2023-06-14T02:47:35;7.20;;;2.17;;
74689;SDS011;63221;51.860;-2.188;2023-06-14T02:50:01;5.13;;;2.03;;
74689;SDS011;63221;51.860;-2.188;2023-06-14T02:52:27;6.22;;;1.88;;
74689;SDS011;63221;51.860;-2.188;2023-06-14T02:54:53;5.72;;;2.60;;
74689;SDS011;63221;51.860;-2.188;2023-06-14T02:57:19;4.80;;;1.80;;
74689;SDS011;63221;51.860;-2.188;2023-06-14T02:59:48;5.47;;;2.42;;
74689;SDS011;63221;51.860;-2.188;2023-06-14T03:02:14;8.15;;;3.00;;
74689;SDS011;63221;51.860;-2.188;2023-06-14T03:04:39;3.70;;;1.77;;
74689;SDS011;63221;51.860;-2.188;2023-06-14T03:07:05;4.18;;;2.10;;
74689;SDS011;63221;51.860;-2.188;2023-06-14T03:09:34;4.82;;;1.95;;
74689;SDS011;63221;51.860;-2.188;2023-06-14T03:12:02;5.30;;;2.28;;
74689;SDS011;63221;51.860;-2.188;2023-06-14T03:14:28;4.93;;;2.17;;
74689;SDS011;63221;51.860;-2.188;2023-06-14T03:16:55;5.18;;;2.20;;
74689;SDS011;63221;51.860;-2.188;2023-06-14T03:19:22;6.55;;;3.55;;
74689;SDS011;63221;51.860;-2.188;2023-06-14T03:21:48;6.20;;;2.30;;
74689;SDS011;63221;51.860;-2.188;2023-06-14T03:24:14;4.35;;;1.80;;
74689;SDS011;63221;51.860;-2.188;2023-06-14T03:26:41;4.27;;;2.37;;
74689;SDS011;63221;51.860;-2.188;2023-06-14T03:29:07;4.75;;;1.85;;
74689;SDS011;63221;51.860;-2.188;2023-06-14T03:31:33;4.43;;;2.10;;
74689;SDS011;63221;51.860;-2.188;2023-06-14T03:34:00;2.95;;;1.98;;
74689;SDS011;63221;51.860;-2.188;2023-06-14T03:36:25;4.60;;;2.28;;
74689;SDS011;63221;51.860;-2.188;2023-06-14T03:38:51;6.17;;;2.27;;
74689;SDS011;63221;51.860;-2.188;2023-06-14T03:41:16;6.07;;;2.10;;
74689;SDS011;63221;51.860;-2.188;2023-06-14T03:43:42;5.63;;;1.85;;
74689;SDS011;63221;51.860;-2.188;2023-06-14T03:46:07;5.40;;;2.33;;
74689;SDS011;63221;51.860;-2.188;2023-06-14T03:48:33;5.07;;;2.77;;
74689;SDS011;63221;51.860;-2.188;2023-06-14T03:50:58;4.80;;;1.80;;
74689;SDS011;63221;51.860;-2.188;2023-06-14T03:53:23;5.47;;;2.17;;
74689;SDS011;63221;51.860;-2.188;2023-06-14T03:55:49;4.33;;;1.80;;
74689;SDS011;63221;51.860;-2.188;2023-06-14T03:58:17;4.28;;;1.60;;
74689;SDS011;63221;51.860;-2.188;2023-06-14T04:00:43;4.40;;;1.73;;
74689;SDS011;63221;51.860;-2.188;2023-06-14T04:03:08;5.72;;;2.72;;
74689;SDS011;63221;51.860;-2.188;2023-06-14T04:05:34;4.97;;;1.83;;
74689;SDS011;63221;51.860;-2.188;2023-06-14T04:07:59;7.70;;;2.93;;
74689;SDS011;63221;51.860;-2.188;2023-06-14T04:10:25;5.05;;;2.45;;
74689;SDS011;63221;51.860;-2.188;2023-06-14T04:12:51;6.65;;;2.38;;
74689;SDS011;63221;51.860;-2.188;2023-06-14T04:15:17;5.70;;;2.63;;
74689;SDS011;63221;51.860;-2.188;2023-06-14T04:17:43;4.17;;;2.07;;
74689;SDS011;63221;51.860;-2.188;2023-06-14T04:20:08;6.57;;;2.85;;
74689;SDS011;63221;51.860;-2.188;2023-06-14T04:22:35;6.57;;;1.83;;
74689;SDS011;63221;51.860;-2.188;2023-06-14T04:25:01;4.00;;;1.85;;
74689;SDS011;63221;51.860;-2.188;2023-06-14T04:27:27;4.82;;;2.60;;
74689;SDS011;63221;51.860;-2.188;2023-06-14T04:29:53;6.00;;;2.85;;
74689;SDS011;63221;51.860;-2.188;2023-06-14T04:32:25;4.72;;;2.05;;
74689;SDS011;63221;51.860;-2.188;2023-06-14T04:34:54;6.63;;;2.37;;
74689;SDS011;63221;51.860;-2.188;2023-06-14T04:37:20;7.60;;;2.83;;
74689;SDS011;63221;51.860;-2.188;2023-06-14T04:39:48;6.15;;;2.70;;
74689;SDS011;63221;51.860;-2.188;2023-06-14T04:42:15;6.15;;;2.53;;
74689;SDS011;63221;51.860;-2.188;2023-06-14T04:44:41;4.93;;;2.38;;
74689;SDS011;63221;51.860;-2.188;2023-06-14T04:47:08;5.77;;;2.23;;
74689;SDS011;63221;51.860;-2.188;2023-06-14T04:49:37;5.22;;;2.33;;
74689;SDS011;63221;51.860;-2.188;2023-06-14T04:52:03;5.20;;;3.03;;
74689;SDS011;63221;51.860;-2.188;2023-06-14T04:54:29;7.07;;;2.85;;
74689;SDS011;63221;51.860;-2.188;2023-06-14T04:56:56;6.95;;;3.15;;
74689;SDS011;63221;51.860;-2.188;2023-06-14T04:59:22;5.37;;;2.57;;
74689;SDS011;63221;51.860;-2.188;2023-06-14T05:01:50;6.40;;;3.15;;
74689;SDS011;63221;51.860;-2.188;2023-06-14T05:04:16;6.88;;;2.70;;
74689;SDS011;63221;51.860;-2.188;2023-06-14T05:06:42;5.85;;;2.88;;
74689;SDS011;63221;51.860;-2.188;2023-06-14T05:09:13;7.40;;;3.00;;
74689;SDS011;63221;51.860;-2.188;2023-06-14T05:11:40;6.18;;;3.10;;
74689;SDS011;63221;51.860;-2.188;2023-06-14T05:14:07;4.45;;;2.83;;
74689;SDS011;63221;51.860;-2.188;2023-06-14T05:16:33;9.53;;;2.90;;
74689;SDS011;63221;51.860;-2.188;2023-06-14T05:18:58;5.60;;;2.75;;
74689;SDS011;63221;51.860;-2.188;2023-06-14T05:21:24;8.40;;;2.83;;
74689;SDS011;63221;51.860;-2.188;2023-06-14T05:23:49;6.80;;;3.33;;
74689;SDS011;63221;51.860;-2.188;2023-06-14T05:26:15;8.15;;;2.70;;
74689;SDS011;63221;51.860;-2.188;2023-06-14T05:28:41;5.50;;;2.20;;
74689;SDS011;63221;51.860;-2.188;2023-06-14T05:31:06;5.80;;;2.55;;
74689;SDS011;63221;51.860;-2.188;2023-06-14T05:33:32;7.27;;;2.60;;
74689;SDS011;63221;51.860;-2.188;2023-06-14T05:35:57;6.03;;;3.13;;
74689;SDS011;63221;51.860;-2.188;2023-06-14T05:38:23;6.93;;;3.00;;
74689;SDS011;63221;51.860;-2.188;2023-06-14T05:40:48;5.57;;;2.55;;
74689;SDS011;63221;51.860;-2.188;2023-06-14T05:43:13;6.87;;;2.63;;
74689;SDS011;63221;51.860;-2.188;2023-06-14T05:45:39;6.23;;;3.13;;
74689;SDS011;63221;51.860;-2.188;2023-06-14T05:48:05;6.57;;;3.08;;
74689;SDS011;63221;51.860;-2.188;2023-06-14T05:50:30;5.47;;;2.67;;
74689;SDS011;63221;51.860;-2.188;2023-06-14T05:52:56;5.73;;;3.33;;
74689;SDS011;63221;51.860;-2.188;2023-06-14T05:55:21;7.13;;;2.65;;
74689;SDS011;63221;51.860;-2.188;2023-06-14T05:57:47;5.70;;;2.90;;
74689;SDS011;63221;51.860;-2.188;2023-06-14T06:00:13;5.65;;;2.65;;
74689;SDS011;63221;51.860;-2.188;2023-06-14T06:02:42;6.72;;;3.30;;
74689;SDS011;63221;51.860;-2.188;2023-06-14T06:05:11;6.13;;;3.57;;
74689;SDS011;63221;51.860;-2.188;2023-06-14T06:07:37;6.43;;;3.03;;
74689;SDS011;63221;51.860;-2.188;2023-06-14T06:10:03;6.90;;;3.83;;
74689;SDS011;63221;51.860;-2.188;2023-06-14T06:12:30;8.00;;;4.00;;
74689;SDS011;63221;51.860;-2.188;2023-06-14T06:14:55;5.90;;;3.10;;
74689;SDS011;63221;51.860;-2.188;2023-06-14T06:17:21;8.00;;;4.43;;
74689;SDS011;63221;51.860;-2.188;2023-06-14T06:19:46;6.82;;;3.97;;
74689;SDS011;63221;51.860;-2.188;2023-06-14T06:22:12;8.17;;;4.00;;
74689;SDS011;63221;51.860;-2.188;2023-06-14T06:24:37;7.40;;;3.47;;
74689;SDS011;63221;51.860;-2.188;2023-06-14T06:27:03;9.53;;;4.00;;
74689;SDS011;63221;51.860;-2.188;2023-06-14T06:29:28;7.10;;;4.20;;
74689;SDS011;63221;51.860;-2.188;2023-06-14T06:31:54;6.47;;;5.00;;
74689;SDS011;63221;51.860;-2.188;2023-06-14T06:34:21;7.45;;;4.20;;
74689;SDS011;63221;51.860;-2.188;2023-06-14T06:36:47;10.10;;;4.45;;
74689;SDS011;63221;51.860;-2.188;2023-06-14T06:39:12;8.90;;;3.93;;
74689;SDS011;63221;51.860;-2.188;2023-06-14T06:41:40;7.45;;;3.53;;
74689;SDS011;63221;51.860;-2.188;2023-06-14T06:44:06;6.88;;;3.95;;
74689;SDS011;63221;51.860;-2.188;2023-06-14T06:46:32;6.47;;;4.07;;
74689;SDS011;63221;51.860;-2.188;2023-06-14T06:48:58;8.48;;;4.65;;
74689;SDS011;63221;51.860;-2.188;2023-06-14T06:51:24;7.93;;;4.07;;
74689;SDS011;63221;51.860;-2.188;2023-06-14T06:53:53;11.27;;;4.00;;
74689;SDS011;63221;51.860;-2.188;2023-06-14T06:56:19;7.57;;;5.03;;
74689;SDS011;63221;51.860;-2.188;2023-06-14T06:58:44;5.70;;;4.53;;
74689;SDS011;63221;51.860;-2.188;2023-06-14T07:01:10;11.95;;;4.35;;
74689;SDS011;63221;51.860;-2.188;2023-06-14T07:03:37;9.00;;;4.55;;
74689;SDS011;63221;51.860;-2.188;2023-06-14T07:06:02;7.00;;;3.73;;
74689;SDS011;63221;51.860;-2.188;2023-06-14T07:08:28;8.50;;;4.80;;
74689;SDS011;63221;51.860;-2.188;2023-06-14T07:10:53;6.43;;;4.03;;
74689;SDS011;63221;51.860;-2.188;2023-06-14T07:13:18;6.33;;;4.03;;
74689;SDS011;63221;51.860;-2.188;2023-06-14T07:15:44;8.60;;;4.37;;
74689;SDS011;63221;51.860;-2.188;2023-06-14T07:18:09;7.50;;;4.57;;
74689;SDS011;63221;51.860;-2.188;2023-06-14T07:20:35;8.02;;;4.18;;
74689;SDS011;63221;51.860;-2.188;2023-06-14T07:23:03;8.63;;;4.57;;
74689;SDS011;63221;51.860;-2.188;2023-06-14T07:25:28;8.40;;;4.07;;
74689;SDS011;63221;51.860;-2.188;2023-06-14T07:27:54;9.80;;;4.03;;
74689;SDS011;63221;51.860;-2.188;2023-06-14T07:30:19;8.27;;;4.40;;
74689;SDS011;63221;51.860;-2.188;2023-06-14T07:32:45;8.00;;;4.90;;
74689;SDS011;63221;51.860;-2.188;2023-06-14T07:35:10;7.07;;;4.40;;
74689;SDS011;63221;51.860;-2.188;2023-06-14T07:37:36;8.17;;;4.30;;
74689;SDS011;63221;51.860;-2.188;2023-06-14T07:40:01;6.13;;;4.10;;
74689;SDS011;63221;51.860;-2.188;2023-06-14T07:42:32;7.32;;;5.18;;
74689;SDS011;63221;51.860;-2.188;2023-06-14T07:44:58;10.43;;;4.47;;
74689;SDS011;63221;51.860;-2.188;2023-06-14T07:47:24;6.32;;;4.15;;
74689;SDS011;63221;51.860;-2.188;2023-06-14T07:49:50;6.50;;;4.03;;
74689;SDS011;63221;51.860;-2.188;2023-06-14T07:52:15;10.65;;;4.75;;
74689;SDS011;63221;51.860;-2.188;2023-06-14T07:54:41;6.97;;;4.03;;
74689;SDS011;63221;51.860;-2.188;2023-06-14T07:57:06;6.97;;;3.97;;
74689;SDS011;63221;51.860;-2.188;2023-06-14T07:59:32;5.68;;;4.13;;
74689;SDS011;63221;51.860;-2.188;2023-06-14T08:01:58;6.07;;;4.27;;
74689;SDS011;63221;51.860;-2.188;2023-06-14T08:04:23;10.60;;;4.80;;
74689;SDS011;63221;51.860;-2.188;2023-06-14T08:06:50;7.78;;;4.00;;
74689;SDS011;63221;51.860;-2.188;2023-06-14T08:09:15;9.00;;;3.63;;
74689;SDS011;63221;51.860;-2.188;2023-06-14T08:11:41;12.53;;;3.70;;
74689;SDS011;63221;51.860;-2.188;2023-06-14T08:14:06;7.50;;;4.40;;
74689;SDS011;63221;51.860;-2.188;2023-06-14T08:16:32;9.25;;;3.50;;
74689;SDS011;63221;51.860;-2.188;2023-06-14T08:18:57;7.50;;;3.40;;
74689;SDS011;63221;51.860;-2.188;2023-06-14T08:21:23;7.63;;;4.13;;
74689;SDS011;63221;51.860;-2.188;2023-06-14T08:23:48;6.20;;;3.70;;
74689;SDS011;63221;51.860;-2.188;2023-06-14T08:26:14;7.93;;;2.93;;
74689;SDS011;63221;51.860;-2.188;2023-06-14T08:28:39;9.13;;;4.37;;
74689;SDS011;63221;51.860;-2.188;2023-06-14T08:31:05;7.43;;;3.27;;
74689;SDS011;63221;51.860;-2.188;2023-06-14T08:33:30;10.27;;;3.57;;
74689;SDS011;63221;51.860;-2.188;2023-06-14T08:35:58;6.28;;;3.55;;
74689;SDS011;63221;51.860;-2.188;2023-06-14T08:38:23;7.87;;;3.90;;
74689;SDS011;63221;51.860;-2.188;2023-06-14T08:40:50;7.80;;;3.67;;
74689;SDS011;63221;51.860;-2.188;2023-06-14T08:43:16;7.15;;;4.00;;
74689;SDS011;63221;51.860;-2.188;2023-06-14T08:45:41;10.13;;;4.43;;
74689;SDS011;63221;51.860;-2.188;2023-06-14T08:48:07;5.63;;;3.67;;
74689;SDS011;63221;51.860;-2.188;2023-06-14T08:50:33;7.45;;;3.53;;
74689;SDS011;63221;51.860;-2.188;2023-06-14T08:53:01;7.72;;;3.22;;
74689;SDS011;63221;51.860;-2.188;2023-06-14T08:55:28;8.27;;;4.07;;
74689;SDS011;63221;51.860;-2.188;2023-06-14T08:57:55;9.90;;;4.03;;
74689;SDS011;63221;51.860;-2.188;2023-06-14T09:00:22;7.13;;;3.58;;
74689;SDS011;63221;51.860;-2.188;2023-06-14T09:02:49;6.25;;;3.42;;
74689;SDS011;63221;51.860;-2.188;2023-06-14T09:05:20;6.80;;;3.33;;
74689;SDS011;63221;51.860;-2.188;2023-06-14T09:07:49;7.97;;;2.80;;
74689;SDS011;63221;51.860;-2.188;2023-06-14T09:10:15;5.80;;;3.33;;
74689;SDS011;63221;51.860;-2.188;2023-06-14T09:12:41;7.70;;;3.58;;
74689;SDS011;63221;51.860;-2.188;2023-06-14T09:15:07;7.00;;;3.47;;
74689;SDS011;63221;51.860;-2.188;2023-06-14T09:17:37;7.73;;;3.47;;
74689;SDS011;63221;51.860;-2.188;2023-06-14T09:20:03;4.00;;;2.50;;
74689;SDS011;63221;51.860;-2.188;2023-06-14T09:22:31;5.95;;;3.53;;
74689;SDS011;63221;51.860;-2.188;2023-06-14T09:24:57;6.65;;;3.60;;
74689;SDS011;63221;51.860;-2.188;2023-06-14T09:27:22;5.97;;;3.20;;
74689;SDS011;63221;51.860;-2.188;2023-06-14T09:29:48;5.47;;;3.50;;
74689;SDS011;63221;51.860;-2.188;2023-06-14T09:32:13;5.63;;;3.92;;
74689;SDS011;63221;51.860;-2.188;2023-06-14T09:34:39;8.27;;;3.73;;
74689;SDS011;63221;51.860;-2.188;2023-06-14T09:37:05;4.75;;;3.33;;
74689;SDS011;63221;51.860;-2.188;2023-06-14T09:39:30;5.50;;;3.30;;
74689;SDS011;63221;51.860;-2.188;2023-06-14T09:41:55;5.03;;;3.50;;
74689;SDS011;63221;51.860;-2.188;2023-06-14T09:44:21;7.47;;;3.43;;
74689;SDS011;63221;51.860;-2.188;2023-06-14T09:46:47;5.53;;;3.60;;
74689;SDS011;63221;51.860;-2.188;2023-06-14T09:49:13;5.90;;;3.03;;
74689;SDS011;63221;51.860;-2.188;2023-06-14T09:51:43;5.23;;;2.50;;
74689;SDS011;63221;51.860;-2.188;2023-06-14T09:54:09;5.35;;;2.78;;
74689;SDS011;63221;51.860;-2.188;2023-06-14T09:56:48;4.63;;;3.17;;
74689;SDS011;63221;51.860;-2.188;2023-06-14T09:59:16;4.32;;;2.67;;
74689;SDS011;63221;51.860;-2.188;2023-06-14T10:01:45;7.70;;;3.05;;
74689;SDS011;63221;51.860;-2.188;2023-06-14T10:04:11;8.07;;;3.92;;
74689;SDS011;63221;51.860;-2.188;2023-06-14T10:06:42;6.07;;;3.07;;
74689;SDS011;63221;51.860;-2.188;2023-06-14T10:09:09;4.40;;;2.97;;
74689;SDS011;63221;51.860;-2.188;2023-06-14T10:11:35;7.22;;;3.70;;
74689;SDS011;63221;51.860;-2.188;2023-06-14T10:14:01;7.55;;;3.63;;
74689;SDS011;63221;51.860;-2.188;2023-06-14T10:16:34;8.02;;;3.40;;
74689;SDS011;63221;51.860;-2.188;2023-06-14T10:24:12;9.18;;;3.50;;
74689;SDS011;63221;51.860;-2.188;2023-06-14T10:26:49;5.40;;;3.33;;
74689;SDS011;63221;51.860;-2.188;2023-06-14T10:29:16;6.32;;;3.30;;
74689;SDS011;63221;51.860;-2.188;2023-06-14T10:31:45;6.97;;;3.50;;
74689;SDS011;63221;51.860;-2.188;2023-06-14T10:34:11;7.60;;;3.30;;
74689;SDS011;63221;51.860;-2.188;2023-06-14T10:36:38;7.43;;;3.20;;
74689;SDS011;63221;51.860;-2.188;2023-06-14T10:39:07;5.20;;;3.58;;
74689;SDS011;63221;51.860;-2.188;2023-06-14T10:41:38;9.23;;;3.45;;
74689;SDS011;63221;51.860;-2.188;2023-06-14T10:46:54;5.60;;;3.42;;
74689;SDS011;63221;51.860;-2.188;2023-06-14T10:49:40;7.77;;;3.63;;
74689;SDS011;63221;51.860;-2.188;2023-06-14T10:52:10;10.38;;;4.00;;
74689;SDS011;63221;51.860;-2.188;2023-06-14T10:54:59;5.30;;;3.30;;
74689;SDS011;63221;51.860;-2.188;2023-06-14T10:57:25;6.20;;;3.05;;
74689;SDS011;63221;51.860;-2.188;2023-06-14T10:59:51;4.20;;;3.47;;
74689;SDS011;63221;51.860;-2.188;2023-06-14T11:04:51;6.78;;;3.20;;
74689;SDS011;63221;51.860;-2.188;2023-06-14T11:13:00;5.27;;;2.60;;
74689;SDS011;63221;51.860;-2.188;2023-06-14T11:15:35;6.90;;;2.78;;
74689;SDS011;63221;51.860;-2.188;2023-06-14T11:18:02;5.13;;;2.77;;
74689;SDS011;63221;51.860;-2.188;2023-06-14T11:20:29;6.82;;;3.05;;
74689;SDS011;63221;51.860;-2.188;2023-06-14T11:22:56;7.13;;;3.50;;
74689;SDS011;63221;51.860;-2.188;2023-06-14T11:25:21;9.47;;;4.10;;
74689;SDS011;63221;51.860;-2.188;2023-06-14T11:27:48;8.60;;;3.75;;
74689;SDS011;63221;51.860;-2.188;2023-06-14T11:30:15;7.00;;;3.90;;
74689;SDS011;63221;51.860;-2.188;2023-06-14T11:32:40;8.27;;;3.50;;
74689;SDS011;63221;51.860;-2.188;2023-06-14T11:35:06;7.10;;;3.33;;
74689;SDS011;63221;51.860;-2.188;2023-06-14T11:37:32;4.68;;;2.85;;
74689;SDS011;63221;51.860;-2.188;2023-06-14T11:39:58;7.13;;;3.47;;
74689;SDS011;63221;51.860;-2.188;2023-06-14T11:42:26;7.72;;;3.78;;
74689;SDS011;63221;51.860;-2.188;2023-06-14T11:44:53;5.82;;;3.22;;
74689;SDS011;63221;51.860;-2.188;2023-06-14T11:47:18;5.57;;;3.03;;
74689;SDS011;63221;51.860;-2.188;2023-06-14T11:49:44;5.27;;;3.57;;
74689;SDS011;63221;51.860;-2.188;2023-06-14T11:52:09;4.37;;;3.13;;
74689;SDS011;63221;51.860;-2.188;2023-06-14T11:54:36;7.13;;;3.28;;
74689;SDS011;63221;51.860;-2.188;2023-06-14T11:57:02;6.40;;;3.88;;
74689;SDS011;63221;51.860;-2.188;2023-06-14T11:59:28;6.60;;;3.67;;
74689;SDS011;63221;51.860;-2.188;2023-06-14T12:01:56;6.85;;;3.85;;
74689;SDS011;63221;51.860;-2.188;2023-06-14T12:04:28;7.50;;;3.42;;
74689;SDS011;63221;51.860;-2.188;2023-06-14T12:06:53;7.65;;;3.40;;
74689;SDS011;63221;51.860;-2.188;2023-06-14T12:09:20;6.90;;;3.90;;
74689;SDS011;63221;51.860;-2.188;2023-06-14T12:11:48;6.67;;;3.70;;
74689;SDS011;63221;51.860;-2.188;2023-06-14T12:14:14;9.70;;;3.70;;
74689;SDS011;63221;51.860;-2.188;2023-06-14T12:16:40;6.57;;;3.67;;
74689;SDS011;63221;51.860;-2.188;2023-06-14T12:19:17;7.18;;;3.90;;
74689;SDS011;63221;51.860;-2.188;2023-06-14T12:21:42;6.82;;;3.78;;
74689;SDS011;63221;51.860;-2.188;2023-06-14T12:24:12;6.88;;;3.97;;
74689;SDS011;63221;51.860;-2.188;2023-06-14T12:26:38;6.30;;;2.77;;
74689;SDS011;63221;51.860;-2.188;2023-06-14T12:29:06;7.88;;;4.72;;
74689;SDS011;63221;51.860;-2.188;2023-06-14T12:31:32;7.28;;;4.10;;
74689;SDS011;63221;51.860;-2.188;2023-06-14T12:33:57;5.73;;;3.70;;
74689;SDS011;63221;51.860;-2.188;2023-06-14T12:36:23;10.37;;;4.03;;
74689;SDS011;63221;51.860;-2.188;2023-06-14T12:38:48;6.67;;;3.90;;
74689;SDS011;63221;51.860;-2.188;2023-06-14T12:41:14;5.55;;;3.38;;
74689;SDS011;63221;51.860;-2.188;2023-06-14T12:43:40;6.43;;;3.65;;
74689;SDS011;63221;51.860;-2.188;2023-06-14T12:46:06;4.90;;;4.30;;
74689;SDS011;63221;51.860;-2.188;2023-06-14T12:48:31;5.82;;;3.40;;
74689;SDS011;63221;51.860;-2.188;2023-06-14T12:50:57;6.47;;;4.27;;
74689;SDS011;63221;51.860;-2.188;2023-06-14T12:53:23;7.07;;;4.03;;
74689;SDS011;63221;51.860;-2.188;2023-06-14T12:55:48;5.55;;;4.00;;
74689;SDS011;63221;51.860;-2.188;2023-06-14T12:58:14;5.17;;;3.67;;
74689;SDS011;63221;51.860;-2.188;2023-06-14T13:00:42;7.25;;;3.53;;
74689;SDS011;63221;51.860;-2.188;2023-06-14T13:03:07;7.78;;;3.65;;
74689;SDS011;63221;51.860;-2.188;2023-06-14T13:05:33;4.77;;;2.73;;
74689;SDS011;63221;51.860;-2.188;2023-06-14T13:07:59;6.13;;;3.50;;
74689;SDS011;63221;51.860;-2.188;2023-06-14T13:10:25;6.80;;;3.67;;
74689;SDS011;63221;51.860;-2.188;2023-06-14T13:12:51;6.60;;;3.37;;
74689;SDS011;63221;51.860;-2.188;2023-06-14T13:15:16;7.67;;;4.40;;
74689;SDS011;63221;51.860;-2.188;2023-06-14T13:17:42;9.70;;;4.30;;
74689;SDS011;63221;51.860;-2.188;2023-06-14T13:20:09;4.33;;;3.33;;
74689;SDS011;63221;51.860;-2.188;2023-06-14T13:22:35;6.43;;;4.40;;
74689;SDS011;63221;51.860;-2.188;2023-06-14T13:25:01;6.70;;;3.83;;
74689;SDS011;63221;51.860;-2.188;2023-06-14T13:27:27;6.00;;;3.38;;
74689;SDS011;63221;51.860;-2.188;2023-06-14T13:29:53;5.80;;;3.95;;
74689;SDS011;63221;51.860;-2.188;2023-06-14T13:32:20;8.13;;;3.90;;
74689;SDS011;63221;51.860;-2.188;2023-06-14T13:34:46;6.38;;;3.38;;
74689;SDS011;63221;51.860;-2.188;2023-06-14T13:37:12;4.85;;;3.95;;
74689;SDS011;63221;51.860;-2.188;2023-06-14T13:39:37;6.17;;;4.23;;
74689;SDS011;63221;51.860;-2.188;2023-06-14T13:42:03;9.23;;;4.63;;
74689;SDS011;63221;51.860;-2.188;2023-06-14T13:44:28;5.13;;;3.75;;
74689;SDS011;63221;51.860;-2.188;2023-06-14T13:46:54;7.63;;;4.03;;
74689;SDS011;63221;51.860;-2.188;2023-06-14T13:49:19;7.23;;;4.10;;
74689;SDS011;63221;51.860;-2.188;2023-06-14T13:51:45;7.43;;;3.88;;
74689;SDS011;63221;51.860;-2.188;2023-06-14T13:54:12;7.40;;;3.97;;
74689;SDS011;63221;51.860;-2.188;2023-06-14T13:56:37;8.18;;;4.50;;
74689;SDS011;63221;51.860;-2.188;2023-06-14T13:59:03;7.30;;;4.13;;
74689;SDS011;63221;51.860;-2.188;2023-06-14T14:01:29;6.33;;;3.93;;
74689;SDS011;63221;51.860;-2.188;2023-06-14T14:03:54;5.90;;;4.17;;
74689;SDS011;63221;51.860;-2.188;2023-06-14T14:06:20;5.50;;;4.07;;
74689;SDS011;63221;51.860;-2.188;2023-06-14T14:08:45;7.57;;;4.77;;
74689;SDS011;63221;51.860;-2.188;2023-06-14T14:11:11;5.13;;;4.63;;
74689;SDS011;63221;51.860;-2.188;2023-06-14T14:13:37;6.72;;;4.30;;
74689;SDS011;63221;51.860;-2.188;2023-06-14T14:16:04;5.57;;;4.20;;
74689;SDS011;63221;51.860;-2.188;2023-06-14T14:18:30;7.47;;;3.47;;
74689;SDS011;63221;51.860;-2.188;2023-06-14T14:20:57;7.18;;;4.25;;
74689;SDS011;63221;51.860;-2.188;2023-06-14T14:23:23;8.45;;;4.78;;
74689;SDS011;63221;51.860;-2.188;2023-06-14T14:25:48;4.93;;;4.53;;
74689;SDS011;63221;51.860;-2.188;2023-06-14T14:28:14;6.90;;;3.93;;
74689;SDS011;63221;51.860;-2.188;2023-06-14T14:30:41;6.88;;;4.68;;
74689;SDS011;63221;51.860;-2.188;2023-06-14T14:33:07;5.50;;;3.80;;
74689;SDS011;63221;51.860;-2.188;2023-06-14T14:35:32;6.67;;;4.50;;
74689;SDS011;63221;51.860;-2.188;2023-06-14T14:37:58;6.57;;;5.45;;
74689;SDS011;63221;51.860;-2.188;2023-06-14T14:40:23;6.67;;;4.20;;
74689;SDS011;63221;51.860;-2.188;2023-06-14T14:42:49;7.00;;;4.88;;
74689;SDS011;63221;51.860;-2.188;2023-06-14T14:45:15;10.10;;;5.13;;
74689;SDS011;63221;51.860;-2.188;2023-06-14T14:47:40;6.47;;;4.47;;